Time;durP1;ratioP1;P1;durP2;ratioP2;P2;SDS_P1;SDS_P2;PMS_P1;PMS_P2;Temp;Humidity;BMP_temperature;BMP_pressure;BME280_temperature;BME280_humidity;BME280_pressure;Samples;Min_cycle;Max_cycle;Signal;HPM_P1;HPM_P2
2021/08/02 00:00:13;;;;;;;9.18;5.90;;;20.60;99.90;;;;;;4222184;28;20096;-62
2021/08/02 00:02:28;;;;;;;12.50;5.57;;;20.70;99.90;;;;;;4222068;28;20059;-62
2021/08/02 00:04:45;;;;;;;12.90;6.65;;;20.70;99.90;;;;;;4222141;28;20040;-62
2021/08/02 00:06:51;;;;;;;13.32;5.75;;;20.80;99.90;;;;;;4222657;28;20027;-61
2021/08/02 00:09:15;;;;;;;11.13;5.68;;;20.80;99.90;;;;;;4222119;28;20495;-61
2021/08/02 00:11:17;;;;;;;11.57;5.13;;;20.80;99.90;;;;;;4222260;28;20031;-62
2021/08/02 00:13:32;;;;;;;10.27;4.78;;;20.80;99.90;;;;;;4221895;28;20043;-62
2021/08/02 00:15:34;;;;;;;8.85;5.22;;;20.70;99.90;;;;;;4222269;28;20474;-61
2021/08/02 00:17:39;;;;;;;7.45;4.40;;;20.60;99.90;;;;;;4225673;28;20045;-62
2021/08/02 00:19:40;;;;;;;6.10;3.88;;;20.50;99.90;;;;;;4239111;28;20889;-62
2021/08/02 00:21:41;;;;;;;9.90;3.08;;;20.50;99.90;;;;;;4239600;28;20035;-62
2021/08/02 00:23:42;;;;;;;12.95;3.97;;;20.30;99.90;;;;;;4238740;28;20470;-62
2021/08/02 00:25:44;;;;;;;7.60;4.82;;;20.10;99.90;;;;;;4239237;28;20023;-62
2021/08/02 00:27:45;;;;;;;8.00;4.60;;;19.90;99.90;;;;;;4236824;28;20448;-63
2021/08/02 00:29:47;;;;;;;12.40;4.65;;;19.80;99.90;;;;;;4238531;28;20821;-62
2021/08/02 00:31:50;;;;;;;8.55;4.13;;;19.70;99.90;;;;;;4238695;28;20549;-62
2021/08/02 00:33:51;;;;;;;12.50;4.40;;;19.60;99.90;;;;;;4239085;27;20080;-63
2021/08/02 00:36:09;;;;;;;7.13;4.30;;;19.60;99.90;;;;;;4223388;27;20043;-62
2021/08/02 00:38:19;;;;;;;10.43;5.13;;;19.60;99.90;;;;;;4222580;28;20032;-62
2021/08/02 00:40:47;;;;;;;9.23;4.80;;;19.60;99.90;;;;;;4221100;28;20043;-62
2021/08/02 00:43:09;;;;;;;6.35;4.43;;;19.60;99.90;;;;;;4222171;28;20100;-62
2021/08/02 00:45:13;;;;;;;8.60;4.60;;;19.60;99.90;;;;;;4220972;28;20093;-62
2021/08/02 00:47:19;;;;;;;9.77;5.03;;;19.70;99.90;;;;;;4222270;28;20437;-62
2021/08/02 00:49:25;;;;;;;7.65;4.75;;;19.70;99.90;;;;;;4221840;28;20085;-62
2021/08/02 00:51:27;;;;;;;8.82;4.68;;;19.80;99.90;;;;;;4221952;28;20073;-62
2021/08/02 00:53:29;;;;;;;9.77;4.85;;;19.80;99.90;;;;;;4221651;28;20109;-62
2021/08/02 00:55:33;;;;;;;8.80;4.60;;;19.90;99.90;;;;;;4222380;28;20032;-62
2021/08/02 00:57:37;;;;;;;7.15;4.35;;;19.90;99.90;;;;;;4221202;28;20047;-62
2021/08/02 00:59:41;;;;;;;5.43;4.03;;;20.00;99.90;;;;;;4221951;28;20023;-62
2021/08/02 01:01:44;;;;;;;11.18;4.18;;;20.00;99.90;;;;;;4221410;28;20055;-62
2021/08/02 01:03:47;;;;;;;7.70;5.00;;;20.10;99.90;;;;;;4222230;28;20028;-62
2021/08/02 01:05:51;;;;;;;7.82;4.30;;;20.00;99.90;;;;;;4221659;28;20160;-62
2021/08/02 01:08:05;;;;;;;7.30;4.45;;;20.10;99.90;;;;;;4223274;28;20108;-62
2021/08/02 01:10:08;;;;;;;7.97;4.05;;;20.10;99.90;;;;;;4224157;28;20099;-62
2021/08/02 01:12:12;;;;;;;7.65;3.95;;;20.00;99.90;;;;;;4224878;28;20028;-62
2021/08/02 01:14:14;;;;;;;7.53;4.28;;;20.00;99.90;;;;;;4236616;27;20027;-62
2021/08/02 01:16:16;;;;;;;5.95;3.78;;;20.00;99.90;;;;;;4241132;27;20490;-63
2021/08/02 01:18:22;;;;;;;8.60;4.10;;;19.90;99.90;;;;;;4241826;27;20072;-62
2021/08/02 01:20:24;;;;;;;6.90;4.13;;;20.00;99.90;;;;;;4241005;27;20039;-61
2021/08/02 01:22:29;;;;;;;5.95;4.03;;;19.90;99.90;;;;;;4241155;27;20038;-62
2021/08/02 01:24:35;;;;;;;5.95;4.60;;;19.90;99.90;;;;;;4241049;27;20068;-62
2021/08/02 01:26:42;;;;;;;8.88;4.57;;;19.90;99.90;;;;;;4241096;27;20446;-62
2021/08/02 01:29:20;;;;;;;6.03;4.05;;;20.00;99.90;;;;;;4240977;27;20072;-63
2021/08/02 01:31:22;;;;;;;7.35;3.92;;;20.00;99.90;;;;;;4241311;27;20076;-62
2021/08/02 01:33:30;;;;;;;9.20;4.18;;;20.00;99.90;;;;;;4241390;27;20158;-62
2021/08/02 01:35:33;;;;;;;7.93;4.30;;;20.00;99.90;;;;;;4240789;27;20050;-62
2021/08/02 01:37:34;;;;;;;9.23;4.25;;;20.00;99.90;;;;;;4241496;27;20167;-62
2021/08/02 01:39:36;;;;;;;13.13;5.47;;;19.90;99.90;;;;;;4241726;27;20035;-61
2021/08/02 01:41:37;;;;;;;11.55;4.65;;;19.80;99.90;;;;;;4240484;27;20441;-62
2021/08/02 01:43:38;;;;;;;8.30;5.22;;;19.80;99.90;;;;;;4241016;27;20076;-62
2021/08/02 01:45:52;;;;;;;7.80;4.40;;;19.80;99.90;;;;;;4240249;27;20043;-62
2021/08/02 01:48:15;;;;;;;6.00;3.78;;;19.70;99.90;;;;;;4241038;27;20080;-62
2021/08/02 01:50:27;;;;;;;5.13;4.18;;;19.50;99.90;;;;;;4240429;27;20047;-62
2021/08/02 01:52:53;;;;;;;8.05;3.35;;;19.50;99.90;;;;;;4240885;27;20031;-62
2021/08/02 01:55:04;;;;;;;9.52;4.30;;;19.50;99.90;;;;;;4240734;27;20043;-63
2021/08/02 01:57:12;;;;;;;7.97;4.85;;;19.40;99.90;;;;;;4240973;27;20031;-63
2021/08/02 01:59:19;;;;;;;7.80;4.15;;;19.40;99.90;;;;;;4237645;27;20039;-62
2021/08/02 02:01:23;;;;;;;6.65;3.85;;;19.30;99.90;;;;;;4224001;28;20053;-62
2021/08/02 02:03:26;;;;;;;8.82;4.20;;;19.30;99.90;;;;;;4224365;28;20027;-62
2021/08/02 02:05:35;;;;;;;7.53;4.55;;;19.30;99.90;;;;;;4223812;28;20128;-63
2021/08/02 02:07:58;;;;;;;11.68;4.60;;;19.30;99.90;;;;;;4223060;28;20096;-62
2021/08/02 02:10:00;;;;;;;8.80;4.22;;;19.20;99.90;;;;;;4223847;28;20023;-62
2021/08/02 02:12:02;;;;;;;7.25;4.25;;;19.30;99.90;;;;;;4223837;28;20043;-62
2021/08/02 02:14:05;;;;;;;5.95;3.78;;;19.20;99.90;;;;;;4222849;28;20051;-61
2021/08/02 02:16:09;;;;;;;5.05;3.50;;;19.20;99.90;;;;;;4223457;28;20043;-62
2021/08/02 02:18:12;;;;;;;8.57;4.35;;;19.20;99.90;;;;;;4223491;28;20437;-62
2021/08/02 02:20:14;;;;;;;5.13;4.45;;;19.20;99.90;;;;;;4223239;28;20043;-63
2021/08/02 02:22:16;;;;;;;9.60;4.20;;;19.30;99.90;;;;;;4223616;28;20124;-62
2021/08/02 02:24:18;;;;;;;5.93;3.95;;;19.30;99.90;;;;;;4223142;28;20036;-62
2021/08/02 02:26:20;;;;;;;9.82;4.80;;;19.40;99.90;;;;;;4223604;28;20031;-62
2021/08/02 02:28:22;;;;;;;7.97;5.15;;;19.40;99.90;;;;;;4223681;28;20045;-63
2021/08/02 02:30:23;;;;;;;5.82;4.45;;;19.50;99.90;;;;;;4223097;28;20044;-62
2021/08/02 02:32:25;;;;;;;8.75;5.00;;;19.60;99.90;;;;;;4222346;27;20107;-62
2021/08/02 02:34:28;;;;;;;9.88;5.20;;;19.70;99.90;;;;;;4222731;28;20097;-62
2021/08/02 02:36:30;;;;;;;11.35;9.40;;;19.70;99.90;;;;;;4223058;28;20512;-62
2021/08/02 02:38:32;;;;;;;21.17;16.33;;;19.60;99.90;;;;;;4223572;28;20035;-62
2021/08/02 02:40:33;;;;;;;25.23;17.48;;;19.60;99.90;;;;;;4222894;28;20521;-61
2021/08/02 02:42:36;;;;;;;22.35;19.95;;;19.60;99.90;;;;;;4223487;28;20039;-62
2021/08/02 02:44:37;;;;;;;30.15;23.05;;;19.60;99.90;;;;;;4223186;28;20040;-62
2021/08/02 02:46:39;;;;;;;22.33;17.85;;;19.60;99.90;;;;;;4239535;27;20024;-62
2021/08/02 02:48:44;;;;;;;22.55;12.60;;;19.70;99.90;;;;;;4240229;27;20080;-62
2021/08/02 02:50:49;;;;;;;13.65;8.93;;;19.70;99.90;;;;;;4239603;27;20031;-62
2021/08/02 02:52:51;;;;;;;10.68;7.93;;;19.80;99.90;;;;;;4240128;27;20352;-61
2021/08/02 02:54:54;;;;;;;16.45;11.18;;;19.80;99.90;;;;;;4238038;27;20035;-61
2021/08/02 02:56:56;;;;;;;14.07;7.18;;;19.80;99.90;;;;;;4240148;27;20085;-61
2021/08/02 02:58:58;;;;;;;12.68;6.00;;;19.70;99.90;;;;;;4239566;27;20060;-62
2021/08/02 03:01:02;;;;;;;12.73;5.75;;;19.70;99.90;;;;;;4240383;27;20108;-62
2021/08/02 03:03:05;;;;;;;6.93;4.65;;;19.70;99.90;;;;;;4239837;27;20031;-62
2021/08/02 03:05:09;;;;;;;10.07;5.00;;;19.60;99.90;;;;;;4239742;27;20057;-61
2021/08/02 03:07:13;;;;;;;9.20;4.88;;;19.50;99.90;;;;;;4239597;27;20475;-63
2021/08/02 03:09:18;;;;;;;7.05;4.63;;;19.50;99.90;;;;;;4239969;27;20542;-62
2021/08/02 03:11:21;;;;;;;8.90;4.82;;;19.50;99.90;;;;;;4239145;27;20035;-62
2021/08/02 03:13:23;;;;;;;6.65;4.22;;;19.50;99.90;;;;;;4238864;27;20579;-62
2021/08/02 03:15:24;;;;;;;6.70;4.07;;;19.50;99.90;;;;;;4239345;27;20052;-62
2021/08/02 03:17:25;;;;;;;7.43;3.78;;;19.60;99.90;;;;;;4239577;27;20486;-62
2021/08/02 03:19:26;;;;;;;11.02;5.07;;;19.70;99.90;;;;;;4239967;27;20681;-62
2021/08/02 03:21:28;;;;;;;5.82;4.00;;;19.70;99.90;;;;;;4239047;27;20042;-62
2021/08/02 03:23:54;;;;;;;6.40;3.80;;;19.80;99.90;;;;;;4238840;27;20039;-61
2021/08/02 03:26:25;;;;;;;4.65;3.40;;;19.80;99.90;;;;;;4216761;27;20055;-62
2021/08/02 03:28:32;;;;;;;6.45;3.88;;;19.80;99.90;;;;;;4239217;27;20571;-62
2021/08/02 03:30:37;;;;;;;4.57;3.60;;;19.80;99.90;;;;;;4238662;27;20076;-61
2021/08/02 03:32:41;;;;;;;6.60;4.13;;;19.90;99.90;;;;;;4238554;27;20047;-61
2021/08/02 03:34:45;;;;;;;5.93;3.63;;;19.90;99.90;;;;;;4239472;27;20561;-62
2021/08/02 03:36:48;;;;;;;5.38;3.63;;;19.90;99.90;;;;;;4229656;27;20822;-62
2021/08/02 03:38:52;;;;;;;5.00;4.00;;;19.90;99.90;;;;;;4222320;28;20024;-62
2021/08/02 03:40:55;;;;;;;6.07;4.28;;;20.00;99.90;;;;;;4222459;28;20047;-62
2021/08/02 03:42:57;;;;;;;7.57;4.68;;;20.00;99.90;;;;;;4222259;28;20036;-62
2021/08/02 03:44:58;;;;;;;10.55;4.25;;;20.10;99.90;;;;;;4222203;28;20040;-61
2021/08/02 03:47:00;;;;;;;9.48;4.20;;;20.20;99.90;;;;;;4222129;28;20364;-61
2021/08/02 03:49:02;;;;;;;7.88;4.50;;;20.30;99.90;;;;;;4221999;28;20036;-62
2021/08/02 03:51:04;;;;;;;5.90;3.95;;;20.30;99.90;;;;;;4222137;28;20035;-62
2021/08/02 03:53:05;;;;;;;6.47;3.78;;;20.40;99.90;;;;;;4222378;28;20920;-62
2021/08/02 03:55:08;;;;;;;7.25;4.25;;;20.40;99.90;;;;;;4219803;28;20548;-62
2021/08/02 03:57:11;;;;;;;6.18;3.72;;;20.40;99.90;;;;;;4222339;28;20498;-62
2021/08/02 03:59:12;;;;;;;6.13;4.43;;;20.60;99.90;;;;;;4220887;28;20104;-62
2021/08/02 04:01:14;;;;;;;10.30;4.35;;;21.00;99.90;;;;;;4222332;28;20048;-62
2021/08/02 04:03:15;;;;;;;7.35;4.88;;;21.30;99.90;;;;;;4221802;28;20105;-61
2021/08/02 04:05:18;;;;;;;5.88;4.20;;;21.70;99.90;;;;;;4222119;28;20077;-61
2021/08/02 04:07:19;;;;;;;7.80;3.90;;;22.20;99.90;;;;;;4221940;28;20552;-62
2021/08/02 04:09:20;;;;;;;8.23;3.90;;;22.60;99.90;;;;;;4222612;28;20437;-62
2021/08/02 04:11:21;;;;;;;5.82;3.42;;;23.00;99.90;;;;;;4220914;28;20039;-62
2021/08/02 04:13:23;;;;;;;5.07;3.35;;;23.40;99.90;;;;;;4221748;28;20035;-61
2021/08/02 04:15:24;;;;;;;8.70;3.80;;;23.70;99.90;;;;;;4221375;28;20105;-62
2021/08/02 04:17:25;;;;;;;7.57;3.25;;;24.10;99.90;;;;;;4221896;28;20039;-63
2021/08/02 04:19:26;;;;;;;5.07;2.78;;;24.50;99.90;;;;;;4221774;28;20036;-62
2021/08/02 04:21:27;;;;;;;3.97;2.75;;;24.90;99.90;;;;;;4221820;28;20051;-62
2021/08/02 04:23:28;;;;;;;7.60;2.95;;;25.30;99.90;;;;;;4225048;28;20175;-62
2021/08/02 04:25:29;;;;;;;6.35;3.30;;;25.70;99.90;;;;;;4221682;28;20027;-61
2021/08/02 04:27:30;;;;;;;5.53;3.25;;;25.90;99.90;;;;;;4222008;28;20513;-62
2021/08/02 04:29:32;;;;;;;5.32;3.38;;;26.30;99.90;;;;;;4221296;28;20535;-62
2021/08/02 04:31:33;;;;;;;5.25;3.13;;;26.60;99.90;;;;;;4222018;28;20092;-61
2021/08/02 04:33:35;;;;;;;7.07;3.10;;;26.60;99.90;;;;;;4235895;28;20027;-61
2021/08/02 04:35:36;;;;;;;5.60;2.88;;;26.70;99.90;;;;;;4238763;28;20783;-62
2021/08/02 04:37:37;;;;;;;8.85;4.00;;;26.60;99.90;;;;;;4220355;28;20081;-62
2021/08/02 04:39:39;;;;;;;5.38;2.95;;;26.50;99.90;;;;;;4219898;28;20035;-61
2021/08/02 04:41:41;;;;;;;9.77;3.42;;;26.30;99.90;;;;;;4220072;28;20101;-61
2021/08/02 04:43:42;;;;;;;5.80;3.35;;;26.20;99.90;;;;;;4222911;28;20105;-60
2021/08/02 04:45:43;;;;;;;6.72;3.08;;;26.00;99.90;;;;;;4213294;28;20040;-60
2021/08/02 04:47:44;;;;;;;7.57;2.85;;;25.90;99.90;;;;;;4223866;27;20031;-60
2021/08/02 04:49:45;;;;;;;7.18;3.53;;;25.80;99.90;;;;;;4206797;27;20035;-61
2021/08/02 04:51:47;;;;;;;6.43;3.60;;;25.50;99.90;;;;;;4223058;27;20047;-61
2021/08/02 04:53:48;;;;;;;6.45;3.45;;;25.20;99.90;;;;;;4223213;27;20560;-61
2021/08/02 04:55:49;;;;;;;5.82;2.88;;;25.00;99.90;;;;;;4223014;28;20039;-60
2021/08/02 04:57:51;;;;;;;5.15;2.92;;;24.90;99.90;;;;;;4223190;28;20031;-60
2021/08/02 04:59:52;;;;;;;8.27;3.72;;;24.60;99.90;;;;;;4221620;28;20459;-62
2021/08/02 05:01:53;;;;;;;7.00;3.72;;;24.20;99.90;;;;;;4223110;28;20051;-61
2021/08/02 05:03:55;;;;;;;6.80;3.00;;;24.00;99.90;;;;;;4221596;27;20508;-61
2021/08/02 05:05:57;;;;;;;8.30;3.22;;;23.80;99.90;;;;;;4217680;28;20613;-62
2021/08/02 05:07:58;;;;;;;7.65;2.63;;;23.70;99.90;;;;;;4223441;28;21074;-61
2021/08/02 05:10:00;;;;;;;8.18;3.38;;;23.50;99.90;;;;;;4223273;27;20100;-61
2021/08/02 05:12:02;;;;;;;7.18;3.00;;;23.40;99.90;;;;;;4222936;28;20028;-62
2021/08/02 05:14:03;;;;;;;5.63;3.40;;;23.30;99.90;;;;;;4223886;27;20511;-63
2021/08/02 05:16:06;;;;;;;5.60;3.10;;;23.20;99.90;;;;;;4221780;27;20084;-61
2021/08/02 05:18:07;;;;;;;9.05;3.38;;;22.90;99.90;;;;;;4223337;28;20023;-61
2021/08/02 05:20:09;;;;;;;9.18;3.70;;;22.70;99.90;;;;;;4222435;27;20036;-61
2021/08/02 05:22:10;;;;;;;8.50;4.28;;;22.60;99.90;;;;;;4221672;27;20067;-61
2021/08/02 05:24:11;;;;;;;10.48;4.25;;;22.40;99.90;;;;;;4216546;28;20085;-62
2021/08/02 05:26:12;;;;;;;8.50;4.47;;;22.30;99.90;;;;;;4227458;27;20372;-60
2021/08/02 05:28:13;;;;;;;8.95;3.92;;;22.30;99.90;;;;;;4224539;28;20081;-59
2021/08/02 05:30:15;;;;;;;8.68;3.90;;;22.30;99.90;;;;;;4223792;28;20084;-61
2021/08/02 05:32:16;;;;;;;15.25;4.15;;;22.20;99.90;;;;;;4238429;27;20027;-61
2021/08/02 05:34:17;;;;;;;6.65;3.75;;;22.00;99.90;;;;;;4222949;28;20124;-61
2021/08/02 05:36:19;;;;;;;6.35;3.70;;;21.80;99.90;;;;;;4240944;27;20024;-61
2021/08/02 05:38:20;;;;;;;11.95;4.30;;;21.60;99.90;;;;;;4240785;27;20039;-60
2021/08/02 05:40:21;;;;;;;7.15;4.80;;;21.50;99.90;;;;;;4241247;27;20039;-60
2021/08/02 05:42:23;;;;;;;8.73;4.38;;;21.50;99.90;;;;;;4241140;27;20554;-61
2021/08/02 05:44:24;;;;;;;11.07;3.85;;;21.60;99.90;;;;;;4239622;27;20031;-60
2021/08/02 05:46:25;;;;;;;8.27;4.28;;;21.90;99.90;;;;;;4241107;27;20519;-60
2021/08/02 05:48:27;;;;;;;10.85;5.35;;;22.20;99.90;;;;;;4240449;27;20942;-61
2021/08/02 05:50:28;;;;;;;10.25;5.15;;;22.70;99.90;;;;;;4239924;27;20432;-61
2021/08/02 05:52:30;;;;;;;14.43;4.95;;;23.40;99.90;;;;;;4229251;27;20028;-59
2021/08/02 05:54:31;;;;;;;4.95;3.38;;;23.90;99.90;;;;;;4217430;27;20067;-61
2021/08/02 05:56:32;;;;;;;12.85;4.70;;;24.70;99.90;;;;;;4225318;27;20501;-61
2021/08/02 05:58:33;;;;;;;12.75;3.65;;;25.00;99.90;;;;;;4225014;27;20035;-61
2021/08/02 06:00:34;;;;;;;9.13;3.95;;;25.10;99.90;;;;;;4225074;27;20108;-60
2021/08/02 06:02:36;;;;;;;10.18;3.75;;;25.20;99.90;;;;;;4221921;27;20101;-63
2021/08/02 06:04:37;;;;;;;11.35;4.28;;;25.50;99.90;;;;;;4236167;27;20035;-62
2021/08/02 06:06:38;;;;;;;10.20;4.00;;;25.50;99.90;;;;;;4228267;27;20552;-61
2021/08/02 06:08:39;;;;;;;8.88;3.72;;;25.50;99.90;;;;;;4223656;28;20049;-63
2021/08/02 06:10:41;;;;;;;8.38;4.03;;;25.60;99.90;;;;;;4224129;28;20084;-63
2021/08/02 06:12:42;;;;;;;9.10;3.75;;;25.70;99.90;;;;;;4223768;28;20422;-62
2021/08/02 06:14:43;;;;;;;11.25;4.15;;;25.60;99.90;;;;;;4225955;27;20043;-63
2021/08/02 06:16:45;;;;;;;6.95;3.97;;;25.70;99.90;;;;;;4240601;27;20039;-62
2021/08/02 06:18:47;;;;;;;5.28;3.78;;;25.80;99.90;;;;;;4240926;27;20548;-61
2021/08/02 06:20:48;;;;;;;7.80;3.78;;;25.90;99.90;;;;;;4241113;27;20068;-62
2021/08/02 06:22:49;;;;;;;10.25;3.83;;;26.20;99.90;;;;;;4225857;27;20043;-62
2021/08/02 06:24:50;;;;;;;9.32;3.53;;;26.10;99.90;;;;;;4223727;28;20085;-62
2021/08/02 06:26:52;;;;;;;7.57;3.38;;;26.30;99.90;;;;;;4223475;28;20047;-62
2021/08/02 06:28:53;;;;;;;9.65;3.53;;;26.60;99.90;;;;;;4239188;27;20039;-62
2021/08/02 06:30:54;;;;;;;11.20;3.50;;;27.00;99.90;;;;;;4240581;27;20048;-61
2021/08/02 06:32:55;;;;;;;8.77;3.50;;;27.30;99.90;;;;;;4239131;27;20031;-62
2021/08/02 06:34:56;;;;;;;10.82;3.00;;;27.60;99.90;;;;;;4240419;27;20027;-63
2021/08/02 06:36:59;;;;;;;7.60;2.90;;;28.00;99.90;;;;;;4223603;27;20031;-62
2021/08/02 06:39:00;;;;;;;10.32;3.50;;;28.70;99.90;;;;;;4223078;28;20433;-62
2021/08/02 06:41:02;;;;;;;6.93;2.78;;;29.00;99.90;;;;;;4223884;27;20040;-62
2021/08/02 06:43:03;;;;;;;7.97;3.20;;;29.40;99.90;;;;;;4239245;27;20108;-61
2021/08/02 06:45:05;;;;;;;8.45;3.30;;;29.70;99.90;;;;;;4240048;27;20027;-62
2021/08/02 06:47:06;;;;;;;7.18;4.20;;;30.00;99.90;;;;;;4236263;27;20150;-61
2021/08/02 06:49:07;;;;;;;6.63;3.08;;;30.30;99.90;;;;;;4214282;28;20471;-62
2021/08/02 06:51:10;;;;;;;7.68;3.20;;;30.40;99.90;;;;;;4222974;27;20495;-61
2021/08/02 06:53:11;;;;;;;10.30;3.38;;;30.40;99.60;;;;;;4239383;27;20042;-62
2021/08/02 06:55:12;;;;;;;6.93;3.15;;;30.20;99.50;;;;;;4231138;27;20503;-61
2021/08/02 06:57:14;;;;;;;7.53;3.00;;;30.00;99.40;;;;;;4222719;28;20760;-61
2021/08/02 06:59:15;;;;;;;7.28;3.05;;;30.00;99.30;;;;;;4224439;27;20044;-63
2021/08/02 07:01:16;;;;;;;5.38;2.80;;;29.80;99.20;;;;;;4223005;28;20540;-62
2021/08/02 07:03:18;;;;;;;8.60;3.30;;;29.50;99.20;;;;;;4223246;28;20040;-61
2021/08/02 07:05:21;;;;;;;7.00;3.38;;;29.10;99.70;;;;;;4221658;28;20020;-61
2021/08/02 07:07:22;;;;;;;18.27;4.13;;;29.10;99.80;;;;;;4222590;28;20028;-63
2021/08/02 07:09:23;;;;;;;6.38;2.85;;;28.90;99.90;;;;;;4221215;28;20179;-61
2021/08/02 07:11:28;;;;;;;6.20;2.72;;;28.80;99.90;;;;;;4215885;28;20089;-62
2021/08/02 07:13:29;;;;;;;10.35;3.45;;;28.40;99.90;;;;;;4217172;28;20096;-61
2021/08/02 07:15:30;;;;;;;8.98;3.35;;;28.00;99.90;;;;;;4222558;28;20027;-61
2021/08/02 07:17:31;;;;;;;6.20;2.97;;;27.70;99.90;;;;;;4222967;28;20031;-61
2021/08/02 07:19:32;;;;;;;8.73;3.28;;;27.60;99.90;;;;;;4222870;28;20081;-61
2021/08/02 07:21:33;;;;;;;9.35;3.80;;;27.40;99.90;;;;;;4226397;27;20024;-61
2021/08/02 07:23:35;;;;;;;8.15;3.30;;;27.30;99.90;;;;;;4222742;28;20480;-61
2021/08/02 07:25:36;;;;;;;5.55;2.80;;;27.20;99.90;;;;;;4222356;28;20053;-61
2021/08/02 07:27:38;;;;;;;12.60;3.92;;;27.10;99.90;;;;;;4223059;28;20097;-61
2021/08/02 07:29:39;;;;;;;10.38;4.47;;;26.90;99.90;;;;;;4226166;27;20027;-61
2021/08/02 07:31:40;;;;;;;12.55;6.82;;;26.80;99.90;;;;;;4222572;28;20101;-61
2021/08/02 07:33:42;;;;;;;15.23;5.55;;;26.50;99.90;;;;;;4222961;28;20036;-61
2021/08/02 07:35:43;;;;;;;4.13;3.20;;;26.40;99.90;;;;;;4231604;27;20039;-62
2021/08/02 07:37:44;;;;;;;16.08;4.30;;;26.30;99.90;;;;;;4236837;27;20086;-61
2021/08/02 07:39:45;;;;;;;9.13;3.80;;;26.30;99.90;;;;;;4222672;28;20536;-61
2021/08/02 07:41:47;;;;;;;10.40;3.95;;;26.10;99.90;;;;;;4227919;27;20031;-61
2021/08/02 07:43:48;;;;;;;12.13;4.05;;;26.10;99.90;;;;;;4239137;27;20035;-61
2021/08/02 07:45:49;;;;;;;9.18;4.28;;;26.00;99.90;;;;;;4235233;27;20032;-62
2021/08/02 07:47:50;;;;;;;7.72;3.30;;;25.90;99.90;;;;;;4225136;27;20035;-61
2021/08/02 07:49:51;;;;;;;8.45;3.28;;;25.60;99.90;;;;;;4239322;27;20056;-61
2021/08/02 07:51:52;;;;;;;10.48;3.80;;;25.30;99.90;;;;;;4222599;27;20104;-61
2021/08/02 07:53:55;;;;;;;6.18;3.05;;;25.10;99.90;;;;;;4222200;28;20047;-62
2021/08/02 07:55:56;;;;;;;7.53;2.80;;;25.10;99.90;;;;;;4221388;28;20023;-61
2021/08/02 07:57:57;;;;;;;5.20;3.33;;;25.10;99.90;;;;;;4221757;28;20035;-63
2021/08/02 08:00:07;;;;;;;4.15;2.70;;;25.20;99.90;;;;;;4221071;28;20455;-61
2021/08/02 08:02:08;;;;;;;10.30;3.43;;;25.20;99.90;;;;;;4222342;28;20040;-61
2021/08/02 08:04:09;;;;;;;5.85;3.88;;;25.30;99.90;;;;;;4222579;28;20978;-61
2021/08/02 08:06:10;;;;;;;9.02;4.13;;;25.40;99.90;;;;;;4222426;28;20049;-61
2021/08/02 08:08:12;;;;;;;6.40;3.85;;;25.40;99.90;;;;;;4222815;28;20107;-61
2021/08/02 08:10:15;;;;;;;7.45;3.50;;;25.40;99.90;;;;;;4222435;28;20421;-61
2021/08/02 08:12:16;;;;;;;14.80;3.70;;;25.40;99.90;;;;;;4222007;28;20096;-61
2021/08/02 08:14:18;;;;;;;4.93;2.88;;;25.50;99.90;;;;;;4221195;28;20089;-62
2021/08/02 08:16:19;;;;;;;9.57;3.85;;;25.60;99.90;;;;;;4222569;28;20105;-62
2021/08/02 08:18:20;;;;;;;4.63;3.15;;;25.50;99.90;;;;;;4225058;28;20019;-61
2021/08/02 08:20:23;;;;;;;8.00;2.85;;;25.60;99.90;;;;;;4225437;28;20028;-61
2021/08/02 08:22:26;;;;;;;7.57;2.97;;;25.60;99.90;;;;;;4224660;28;20043;-62
2021/08/02 08:24:27;;;;;;;6.32;2.53;;;25.70;99.90;;;;;;4225153;28;20127;-62
2021/08/02 08:26:28;;;;;;;9.50;3.25;;;25.90;99.90;;;;;;4225499;28;20092;-62
2021/08/02 08:28:30;;;;;;;12.35;3.28;;;26.10;99.90;;;;;;4225149;28;20036;-62
2021/08/02 08:30:31;;;;;;;9.15;2.33;;;26.20;99.90;;;;;;4230208;27;20049;-61
2021/08/02 08:32:32;;;;;;;8.48;3.20;;;26.30;99.90;;;;;;4242558;27;20492;-63
2021/08/02 08:34:33;;;;;;;8.75;3.78;;;26.40;99.90;;;;;;4237897;27;20031;-61
2021/08/02 08:36:35;;;;;;;9.40;3.00;;;26.50;99.90;;;;;;4241794;27;20448;-61
2021/08/02 08:38:37;;;;;;;9.88;3.58;;;26.50;99.90;;;;;;4242523;27;20031;-61
2021/08/02 08:40:38;;;;;;;5.05;2.83;;;26.50;99.90;;;;;;4241853;27;20100;-61
2021/08/02 08:42:41;;;;;;;7.05;3.20;;;26.30;99.90;;;;;;4242449;27;20375;-61
2021/08/02 08:44:43;;;;;;;5.90;3.03;;;26.20;99.90;;;;;;4242069;27;20019;-60
2021/08/02 08:46:45;;;;;;;12.57;3.45;;;26.10;99.90;;;;;;4235794;27;20088;-62
2021/08/02 08:48:47;;;;;;;8.43;4.32;;;26.10;99.90;;;;;;4224484;28;20036;-61
2021/08/02 08:50:49;;;;;;;5.38;3.63;;;26.20;99.90;;;;;;4224427;28;20368;-60
2021/08/02 08:52:55;;;;;;;10.27;3.38;;;26.20;99.90;;;;;;4239391;27;20096;-61
2021/08/02 08:54:57;;;;;;;7.78;3.38;;;26.30;99.90;;;;;;4241496;27;20035;-61
2021/08/02 08:56:58;;;;;;;8.90;3.50;;;26.30;99.90;;;;;;4240703;27;20031;-61
2021/08/02 08:58:59;;;;;;;9.73;3.35;;;26.30;99.90;;;;;;4241263;27;20452;-60
2021/08/02 09:01:03;;;;;;;8.25;3.33;;;26.30;99.90;;;;;;4241096;27;20031;-61
2021/08/02 09:03:11;;;;;;;8.38;3.35;;;26.30;99.90;;;;;;4225895;27;20035;-61
2021/08/02 09:05:12;;;;;;;7.93;3.05;;;26.20;99.90;;;;;;4224610;28;20028;-62
2021/08/02 09:07:14;;;;;;;6.15;2.83;;;26.30;99.90;;;;;;4223173;28;20411;-61
2021/08/02 09:09:35;;;;;;;7.50;2.50;;;26.30;99.90;;;;;;4227977;27;20581;-61
2021/08/02 09:11:36;;;;;;;5.63;3.00;;;26.10;99.90;;;;;;4218580;28;20035;-61
2021/08/02 09:13:38;;;;;;;5.32;2.83;;;26.10;99.90;;;;;;4223945;28;20097;-61
2021/08/02 09:15:42;;;;;;;8.82;2.47;;;26.10;99.90;;;;;;4224333;28;20035;-61
2021/08/02 09:17:43;;;;;;;13.57;3.20;;;26.10;99.90;;;;;;4224636;28;20024;-61
2021/08/02 09:19:44;;;;;;;3.67;2.90;;;26.10;99.90;;;;;;4223245;27;20543;-61
2021/08/02 09:21:49;;;;;;;4.55;2.47;;;26.20;99.90;;;;;;4224553;27;20098;-61
2021/08/02 09:23:52;;;;;;;7.03;2.58;;;26.20;99.90;;;;;;4223725;28;20514;-61
2021/08/02 09:25:56;;;;;;;7.57;2.88;;;26.40;99.90;;;;;;4224543;27;20040;-61
2021/08/02 09:27:57;;;;;;;8.15;4.75;;;26.50;99.90;;;;;;4223331;27;20144;-61
2021/08/02 09:29:58;;;;;;;5.97;2.63;;;26.50;99.90;;;;;;4224489;28;20536;-61
2021/08/02 09:32:00;;;;;;;6.22;2.80;;;26.50;99.90;;;;;;4231562;27;20035;-61
2021/08/02 09:34:04;;;;;;;6.63;2.50;;;26.50;99.90;;;;;;4241185;27;20072;-60
2021/08/02 09:36:05;;;;;;;5.57;2.67;;;26.60;99.90;;;;;;4241448;27;20023;-60
2021/08/02 09:38:11;;;;;;;5.90;2.75;;;26.40;99.90;;;;;;4241597;27;20535;-60
2021/08/02 09:40:13;;;;;;;11.25;3.13;;;26.30;99.90;;;;;;4238250;27;20104;-62
2021/08/02 09:42:14;;;;;;;7.28;3.38;;;26.10;99.90;;;;;;4222621;28;20588;-61
2021/08/02 09:44:23;;;;;;;7.40;3.35;;;25.90;99.90;;;;;;4223755;27;20051;-60
2021/08/02 09:46:24;;;;;;;9.52;3.90;;;25.70;99.90;;;;;;4224439;28;20035;-63
2021/08/02 09:48:43;;;;;;;7.28;4.30;;;25.70;99.90;;;;;;4226252;27;20028;-61
2021/08/02 09:50:46;;;;;;;5.00;3.07;;;25.70;99.90;;;;;;4224351;27;20016;-60
2021/08/02 09:52:51;;;;;;;10.18;3.97;;;25.70;99.90;;;;;;4224354;28;20032;-61
2021/08/02 09:55:02;;;;;;;11.27;4.05;;;25.70;99.90;;;;;;4224251;28;20024;-62
2021/08/02 09:57:07;;;;;;;6.05;3.80;;;25.60;99.90;;;;;;4229188;27;20080;-61
2021/08/02 09:59:09;;;;;;;8.25;4.00;;;25.50;99.90;;;;;;4240141;27;20035;-61
2021/08/02 10:01:15;;;;;;;9.43;4.85;;;25.50;99.90;;;;;;4236581;27;20027;-61
2021/08/02 10:03:16;;;;;;;9.07;3.90;;;25.40;99.90;;;;;;4223112;28;20556;-61
2021/08/02 10:05:19;;;;;;;7.45;3.65;;;25.40;99.90;;;;;;4231746;27;20163;-61
2021/08/02 10:07:21;;;;;;;7.93;4.15;;;25.30;99.90;;;;;;4240072;27;20027;-62
2021/08/02 10:09:22;;;;;;;11.45;5.57;;;25.20;99.90;;;;;;4240399;27;20430;-62
2021/08/02 10:11:23;;;;;;;12.55;4.93;;;25.10;99.90;;;;;;4239921;27;20035;-61
2021/08/02 10:13:27;;;;;;;11.65;4.55;;;25.10;99.90;;;;;;4240492;27;20084;-62
2021/08/02 10:15:29;;;;;;;7.85;4.55;;;25.20;99.90;;;;;;4240169;27;20429;-62
2021/08/02 10:17:31;;;;;;;7.47;4.75;;;25.30;99.90;;;;;;4240170;27;20452;-62
2021/08/02 10:19:47;;;;;;;8.98;4.75;;;25.60;99.90;;;;;;4239916;27;20076;-62
2021/08/02 10:21:48;;;;;;;8.43;5.25;;;25.80;99.90;;;;;;4240274;27;20100;-61
2021/08/02 10:23:49;;;;;;;11.32;4.68;;;26.00;99.90;;;;;;4238022;27;20522;-61
2021/08/02 10:25:51;;;;;;;15.02;4.68;;;26.10;99.90;;;;;;4240332;27;20039;-61
2021/08/02 10:27:52;;;;;;;10.50;4.72;;;26.20;99.90;;;;;;4240178;27;20076;-61
2021/08/02 10:29:53;;;;;;;6.45;3.88;;;26.30;99.90;;;;;;4240061;27;20043;-61
2021/08/02 10:31:55;;;;;;;11.48;4.78;;;26.40;99.90;;;;;;4240069;27;20031;-61
2021/08/02 10:33:57;;;;;;;10.63;4.22;;;26.60;99.90;;;;;;4237961;27;20080;-61
2021/08/02 10:36:14;;;;;;;7.65;4.03;;;26.80;99.90;;;;;;4229758;27;20112;-61
2021/08/02 10:38:17;;;;;;;12.82;4.80;;;27.10;99.90;;;;;;4222785;28;20077;-61